createdAt,value
2018-10-02T00:00:01.395Z,12.50
2018-10-02T00:05:04.826Z,11.87
2018-10-02T00:10:07.953Z,14.33
2018-10-02T00:15:22.179Z,10.30
2018-10-02T00:20:24.367Z,23.03
2018-10-02T00:25:27.503Z,12.07
2018-10-02T00:30:30.655Z,16.13
2018-10-02T00:35:33.769Z,12.00
2018-10-02T00:40:36.921Z,12.73
2018-10-02T00:45:40.098Z,14.80
2018-10-02T00:50:43.159Z,19.23
2018-10-02T00:55:46.309Z,17.07
2018-10-02T01:00:49.403Z,16.67
2018-10-02T01:05:52.509Z,15.70
2018-10-02T01:10:55.646Z,11.67
2018-10-02T01:15:58.719Z,14.80
2018-10-02T01:21:01.843Z,18.80
2018-10-02T01:26:05.055Z,21.73
2018-10-02T01:31:13.760Z,27.27
2018-10-02T01:36:16.891Z,16.37
2018-10-02T01:41:20.035Z,20.43
2018-10-02T01:46:23.383Z,19.60
2018-10-02T01:51:26.493Z,14.27
2018-10-02T01:56:29.873Z,14.23
2018-10-02T02:01:32.974Z,17.27
2018-10-02T02:06:40.493Z,24.27
2018-10-02T02:11:42.456Z,26.27
2018-10-02T02:16:45.656Z,10.33
2018-10-02T02:21:48.816Z,15.03
2018-10-02T02:26:51.929Z,19.80
2018-10-02T02:31:55.126Z,22.83
2018-10-02T02:36:58.303Z,25.48
2018-10-02T02:42:01.463Z,15.90
2018-10-02T02:47:22.637Z,19.57
2018-10-02T02:52:31.865Z,21.57
2018-10-02T02:57:34.930Z,17.70
2018-10-02T03:02:38.073Z,14.50
2018-10-02T03:07:41.262Z,15.80
2018-10-02T03:12:44.359Z,15.67
2018-10-02T03:17:50.389Z,18.63
2018-10-02T03:22:54.258Z,17.67
2018-10-02T03:27:57.446Z,17.17
2018-10-02T03:33:00.570Z,19.20
2018-10-02T03:38:03.869Z,17.15
2018-10-02T03:43:06.962Z,19.17
2018-10-02T03:48:10.238Z,19.20
2018-10-02T03:53:13.386Z,15.80
2018-10-02T03:58:16.566Z,14.00
2018-10-02T04:03:20.575Z,13.70
2018-10-02T04:08:23.592Z,10.77
2018-10-02T04:13:26.807Z,9.47
2018-10-02T04:18:29.949Z,13.27
2018-10-02T04:23:33.134Z,10.50
2018-10-02T04:28:36.226Z,8.70
2018-10-02T04:33:39.421Z,15.17
2018-10-02T04:38:42.554Z,11.07
2018-10-02T04:43:45.720Z,8.63
2018-10-02T04:48:48.967Z,20.17
2018-10-02T04:53:52.180Z,11.27
2018-10-02T04:58:55.326Z,10.50
2018-10-02T05:03:58.486Z,12.53
2018-10-02T05:09:01.626Z,14.60
2018-10-02T05:14:08.106Z,8.43
2018-10-02T05:19:11.224Z,11.57
2018-10-02T05:24:14.407Z,14.40
2018-10-02T05:29:17.628Z,10.00
2018-10-02T05:34:20.808Z,12.90
2018-10-02T05:39:24.220Z,6.73
2018-10-02T05:44:27.373Z,14.87
2018-10-02T05:49:30.545Z,12.23
2018-10-02T05:54:33.676Z,13.13
2018-10-02T05:59:36.872Z,19.13
2018-10-02T06:04:40.095Z,18.07
2018-10-02T06:09:43.322Z,13.53
2018-10-02T06:14:46.453Z,14.20
2018-10-02T06:19:49.587Z,11.80
2018-10-02T06:24:52.788Z,13.97
2018-10-02T06:29:55.909Z,14.13
2018-10-02T06:34:59.081Z,11.37
2018-10-02T06:40:02.254Z,19.00
2018-10-02T06:45:11.702Z,11.13
2018-10-02T06:50:14.722Z,9.40
2018-10-02T06:55:17.859Z,12.80
2018-10-02T07:00:20.995Z,13.40
2018-10-02T07:05:27.074Z,11.18
2018-10-02T07:10:30.252Z,11.77
2018-10-02T07:15:33.395Z,15.83
2018-10-02T07:20:37.004Z,20.83
2018-10-02T07:25:40.151Z,10.20
2018-10-02T07:30:43.422Z,14.33
2018-10-02T07:35:46.412Z,11.23
2018-10-02T07:40:49.563Z,12.47
2018-10-02T07:45:52.732Z,13.70
2018-10-02T07:50:56.020Z,14.53
2018-10-02T07:55:59.091Z,12.73
2018-10-02T08:01:02.228Z,9.43
2018-10-02T08:06:05.512Z,17.73
2018-10-02T08:11:08.901Z,11.70
2018-10-02T08:16:12.065Z,12.93
2018-10-02T08:21:15.216Z,10.53
2018-10-02T08:26:18.385Z,9.17
2018-10-02T08:31:21.517Z,10.53
2018-10-02T08:36:24.734Z,18.00
2018-10-02T08:41:27.779Z,11.27
2018-10-02T08:46:30.974Z,13.83
2018-10-02T08:51:34.081Z,13.33
2018-10-02T08:56:37.288Z,16.10
2018-10-02T09:01:40.361Z,9.47
2018-10-02T09:06:43.648Z,14.80
2018-10-02T09:11:46.722Z,10.87
2018-10-02T09:16:49.912Z,12.70
2018-10-02T09:21:53.053Z,14.53
2018-10-02T09:26:56.332Z,13.70
2018-10-02T09:32:17.267Z,12.40
2018-10-02T09:37:38.705Z,16.10
2018-10-02T09:42:59.619Z,12.80
2018-10-02T09:48:10.174Z,14.00
2018-10-02T09:53:13.292Z,21.37
2018-10-02T09:58:16.501Z,12.13
2018-10-02T10:03:19.643Z,15.97
2018-10-02T10:08:22.820Z,14.87
2018-10-02T10:13:25.963Z,9.93
2018-10-02T10:18:29.143Z,14.37
2018-10-02T10:23:32.289Z,13.60
2018-10-02T10:28:35.452Z,12.60
2018-10-02T10:33:38.662Z,13.43
2018-10-02T10:38:41.757Z,13.18
2018-10-02T10:43:44.888Z,10.20
2018-10-02T10:48:48.081Z,10.53
2018-10-02T10:53:51.217Z,18.70
2018-10-02T10:58:54.384Z,10.17
2018-10-02T11:03:57.558Z,11.13
2018-10-02T11:09:00.719Z,14.80
2018-10-02T11:14:03.973Z,24.93
2018-10-02T11:19:07.051Z,16.67
2018-10-02T11:24:10.175Z,10.13
2018-10-02T11:29:13.291Z,13.57
2018-10-02T11:34:16.447Z,13.40
2018-10-02T11:39:19.613Z,13.07
2018-10-02T11:44:23.030Z,20.53
2018-10-02T11:49:26.179Z,29.00
2018-10-02T11:54:29.315Z,13.47
2018-10-02T11:59:32.426Z,14.97
2018-10-02T12:04:35.591Z,15.37
2018-10-02T12:09:38.726Z,15.13
2018-10-02T12:14:41.941Z,14.63
2018-10-02T12:19:45.149Z,18.53
2018-10-02T12:24:48.434Z,64.63
2018-10-02T12:29:51.659Z,22.20
2018-10-02T12:34:54.823Z,16.37
2018-10-02T12:39:58.019Z,25.90
2018-10-02T12:45:01.201Z,25.47
2018-10-02T12:50:04.390Z,22.07
2018-10-02T12:55:07.553Z,25.72
2018-10-02T13:00:10.886Z,15.07
2018-10-02T13:05:14.040Z,16.60
2018-10-02T13:10:17.167Z,15.40
2018-10-02T13:15:20.348Z,16.63
2018-10-02T13:20:23.487Z,17.63
2018-10-02T13:25:26.648Z,15.50
2018-10-02T13:30:29.708Z,13.87
2018-10-02T13:35:32.864Z,14.13
2018-10-02T13:40:36.060Z,22.73
2018-10-02T13:45:39.160Z,19.02
2018-10-02T13:50:43.166Z,18.40
2018-10-02T13:55:46.551Z,16.00
2018-10-02T14:00:49.764Z,11.97
2018-10-02T14:05:52.872Z,15.43
2018-10-02T14:10:56.039Z,16.97
2018-10-02T14:15:59.201Z,16.30
2018-10-02T14:21:02.362Z,16.00
2018-10-02T14:26:05.479Z,12.47
2018-10-02T14:31:08.682Z,15.47
2018-10-02T14:36:11.823Z,16.77
2018-10-02T14:41:14.939Z,17.70
2018-10-02T14:46:18.110Z,11.90
2018-10-02T14:51:21.515Z,16.83
2018-10-02T14:56:24.772Z,13.30
2018-10-02T15:01:28.788Z,24.43
2018-10-02T15:06:32.187Z,22.23
2018-10-02T15:11:35.385Z,40.03
2018-10-02T15:16:38.571Z,39.07
2018-10-02T15:21:41.827Z,24.73
2018-10-02T15:26:44.988Z,13.27
2018-10-02T15:31:48.265Z,32.40
2018-10-02T15:36:51.361Z,18.83
2018-10-02T15:41:54.534Z,8.47
2018-10-02T15:46:57.669Z,22.40
2018-10-02T15:52:00.847Z,8.17
2018-10-02T15:57:04.055Z,9.17
2018-10-02T16:02:07.248Z,9.97
2018-10-02T16:07:10.370Z,9.00
2018-10-02T16:12:13.495Z,5.80
2018-10-02T16:17:16.647Z,4.27
2018-10-02T16:22:19.848Z,4.87
2018-10-02T16:27:23.010Z,2.52
2018-10-02T16:32:26.118Z,3.02
2018-10-02T16:37:29.289Z,4.77
2018-10-02T16:42:32.441Z,3.47
2018-10-02T16:47:35.757Z,2.47
2018-10-02T16:52:38.958Z,1.13
2018-10-02T16:57:42.086Z,3.43
2018-10-02T17:02:45.268Z,1.97
2018-10-02T17:07:48.478Z,1.33
2018-10-02T17:12:51.636Z,2.83
2018-10-02T17:17:54.842Z,2.83
2018-10-02T17:22:58.054Z,2.10
2018-10-02T17:28:01.273Z,2.03
2018-10-02T17:33:04.529Z,2.20
2018-10-02T17:38:07.700Z,2.77
2018-10-02T17:43:10.887Z,1.93
2018-10-02T17:48:14.215Z,2.07
2018-10-02T17:53:17.492Z,2.47
2018-10-02T17:58:20.739Z,2.83
2018-10-02T18:03:23.861Z,3.60
2018-10-02T18:08:27.002Z,1.30
2018-10-02T18:13:30.164Z,2.45
2018-10-02T18:18:33.347Z,3.13
2018-10-02T18:23:36.538Z,2.70
2018-10-02T18:28:40.001Z,3.83
2018-10-02T18:33:43.691Z,2.07
2018-10-02T18:38:46.914Z,2.57
2018-10-02T18:43:50.089Z,3.67
2018-10-02T18:48:53.284Z,4.33
2018-10-02T18:53:56.490Z,3.27
2018-10-02T18:58:59.690Z,2.60
2018-10-02T19:04:03.142Z,4.03
2018-10-02T19:09:15.171Z,4.22
2018-10-02T19:14:19.137Z,4.53
2018-10-02T19:19:39.938Z,3.13
2018-10-02T19:24:43.120Z,3.70
2018-10-02T19:29:47.435Z,4.77
2018-10-02T19:34:50.696Z,6.27
2018-10-02T19:39:53.851Z,3.80
2018-10-02T19:44:58.019Z,3.50
2018-10-02T19:50:01.180Z,5.17
2018-10-02T19:55:04.525Z,4.33
2018-10-02T20:00:08.004Z,6.07
2018-10-02T20:05:11.353Z,6.90
2018-10-02T20:10:14.473Z,5.37
2018-10-02T20:15:17.654Z,5.40
2018-10-02T20:20:20.781Z,5.72
2018-10-02T20:25:24.029Z,4.63
2018-10-02T20:30:27.198Z,5.33
2018-10-02T20:35:30.333Z,6.13
2018-10-02T20:40:33.590Z,5.40
2018-10-02T20:45:36.725Z,7.40
2018-10-02T20:50:39.871Z,8.77
2018-10-02T20:55:42.976Z,8.87
2018-10-02T21:00:46.119Z,6.30
2018-10-02T21:05:49.290Z,8.63
2018-10-02T21:10:52.506Z,8.97
2018-10-02T21:15:55.697Z,9.57
2018-10-02T21:20:58.816Z,8.13
2018-10-02T21:26:01.969Z,8.43
2018-10-02T21:31:05.109Z,12.40
2018-10-02T21:36:08.255Z,12.37
2018-10-02T21:41:11.449Z,15.00
2018-10-02T21:46:14.632Z,12.70
2018-10-02T21:51:17.763Z,12.50
2018-10-02T21:56:21.085Z,10.87
2018-10-02T22:01:30.388Z,9.80
2018-10-02T22:06:33.549Z,13.13
2018-10-02T22:11:36.735Z,12.50
2018-10-02T22:16:39.912Z,11.67
2018-10-02T22:21:43.024Z,16.27
2018-10-02T22:26:46.171Z,12.70
2018-10-02T22:31:49.387Z,12.17
2018-10-02T22:36:52.545Z,16.60
2018-10-02T22:41:55.694Z,13.20
2018-10-02T22:46:58.844Z,17.20
2018-10-02T22:52:06.924Z,14.70
2018-10-02T22:57:10.118Z,12.00
2018-10-02T23:02:13.280Z,10.70
2018-10-02T23:07:16.408Z,12.63
2018-10-02T23:12:19.501Z,10.30
2018-10-02T23:17:22.645Z,11.13
2018-10-02T23:22:25.834Z,12.07
2018-10-02T23:27:28.982Z,11.67
2018-10-02T23:32:32.185Z,11.30
2018-10-02T23:37:35.293Z,11.67
2018-10-02T23:42:38.439Z,12.40
2018-10-02T23:47:41.574Z,10.30
2018-10-02T23:52:44.772Z,8.83
2018-10-02T23:57:47.909Z,9.93
